createdAt,value
2022-09-18T00:00:13.312Z,69.63
2022-09-18T00:03:02.299Z,69.69
2022-09-18T00:05:30.641Z,69.63
2022-09-18T00:08:01.385Z,69.66
2022-09-18T00:10:30.087Z,69.73
2022-09-18T00:12:58.704Z,69.64
2022-09-18T00:15:27.867Z,69.81
2022-09-18T00:17:57.499Z,69.81
2022-09-18T00:20:28.704Z,69.75
2022-09-18T00:22:58.479Z,69.80
2022-09-18T00:26:07.979Z,69.76
2022-09-18T00:28:44.801Z,69.96
2022-09-18T00:31:20.414Z,69.82
2022-09-18T00:33:50.449Z,69.79
2022-09-18T00:36:20.670Z,69.96
2022-09-18T00:38:50.164Z,69.95
2022-09-18T00:41:24.826Z,69.98
2022-09-18T00:43:57.134Z,69.88
2022-09-18T00:46:51.131Z,69.90
2022-09-18T00:49:26.235Z,69.80
2022-09-18T00:51:59.320Z,69.74
2022-09-18T00:54:44.104Z,69.73
2022-09-18T00:57:17.643Z,69.75
2022-09-18T00:59:49.886Z,69.74
2022-09-18T01:02:19.208Z,69.60
2022-09-18T01:04:49.422Z,69.54
2022-09-18T01:07:49.006Z,69.54
2022-09-18T01:10:44.053Z,69.59
2022-09-18T01:13:48.954Z,69.47
2022-09-18T01:17:05.392Z,69.51
2022-09-18T01:20:07.667Z,69.59
2022-09-18T01:23:06.100Z,69.48
2022-09-18T01:26:14.737Z,69.52
2022-09-18T01:29:13.131Z,69.43
2022-09-18T01:31:52.080Z,69.57
2022-09-18T01:34:54.787Z,69.54
2022-09-18T01:37:39.316Z,69.43
2022-09-18T01:40:23.991Z,69.50
2022-09-18T01:42:56.682Z,69.54
2022-09-18T01:45:34.772Z,69.55
2022-09-18T01:48:07.964Z,69.61
2022-09-18T01:50:47.689Z,69.60
2022-09-18T01:53:25.364Z,69.56
2022-09-18T01:56:02.324Z,69.63
2022-09-18T01:58:34.592Z,69.68
2022-09-18T02:01:13.336Z,69.70
2022-09-18T02:03:55.187Z,69.81
2022-09-18T02:06:39.907Z,69.79
2022-09-18T02:09:10.861Z,69.83
2022-09-18T02:11:47.320Z,69.90
2022-09-18T02:14:22.524Z,69.91
2022-09-18T02:17:23.352Z,70.01
2022-09-18T02:19:58.143Z,70.08
2022-09-18T02:22:30.729Z,70.15
2022-09-18T02:25:11.432Z,70.21
2022-09-18T02:27:43.845Z,70.15
2022-09-18T02:30:12.655Z,70.09
2022-09-18T02:32:43.834Z,70.21
2022-09-18T02:35:15.295Z,70.42
2022-09-18T02:38:34.756Z,70.38
2022-09-18T02:41:32.682Z,70.43
2022-09-18T02:45:12.094Z,70.58
2022-09-18T02:48:17.510Z,70.75
2022-09-18T02:51:07.489Z,70.82
2022-09-18T02:53:58.985Z,71.03
2022-09-18T02:56:45.112Z,71.32
2022-09-18T02:59:35.041Z,71.36
2022-09-18T03:02:04.459Z,71.46
2022-09-18T03:04:38.932Z,71.64
2022-09-18T03:07:14.812Z,71.70
2022-09-18T03:09:45.805Z,71.64
2022-09-18T03:12:16.189Z,71.69
2022-09-18T03:14:49.594Z,71.79
2022-09-18T03:17:18.985Z,71.82
2022-09-18T03:19:50.226Z,72.04
2022-09-18T03:22:18.725Z,71.99
2022-09-18T03:24:48.116Z,72.05
2022-09-18T03:27:18.814Z,72.02
2022-09-18T03:29:47.593Z,71.98
2022-09-18T03:32:18.586Z,72.14
2022-09-18T03:34:49.375Z,72.02
2022-09-18T03:37:21.286Z,72.04
2022-09-18T03:39:50.208Z,72.09
2022-09-18T03:42:20.550Z,72.14
2022-09-18T03:44:49.708Z,72.10
2022-09-18T03:47:27.835Z,72.15
2022-09-18T03:50:04.789Z,72.08
2022-09-18T03:52:35.878Z,72.23
2022-09-18T03:55:14.885Z,72.24
2022-09-18T03:58:21.832Z,72.34
2022-09-18T04:01:16.653Z,72.45
2022-09-18T04:04:09.152Z,72.58
2022-09-18T04:06:53.924Z,72.56
2022-09-18T04:09:41.468Z,72.60
2022-09-18T04:12:11.108Z,72.68
2022-09-18T04:14:40.823Z,72.65
2022-09-18T04:17:11.369Z,72.76
2022-09-18T04:19:40.046Z,72.93
2022-09-18T04:22:10.720Z,73.02
2022-09-18T04:24:39.875Z,73.11
2022-09-18T04:27:08.092Z,73.12
2022-09-18T04:29:36.273Z,73.16
2022-09-18T04:32:05.817Z,73.30
2022-09-18T04:34:34.011Z,73.25
2022-09-18T04:37:01.903Z,73.42
2022-09-18T04:40:15.879Z,73.32
2022-09-18T04:42:45.408Z,73.46
2022-09-18T04:45:13.978Z,73.39
2022-09-18T04:47:44.725Z,73.35
2022-09-18T04:50:18.835Z,73.48
2022-09-18T04:53:35.542Z,73.57
2022-09-18T04:56:05.455Z,73.45
2022-09-18T04:58:37.631Z,73.58
2022-09-18T05:01:09.549Z,73.64
2022-09-18T05:03:42.147Z,73.78
2022-09-18T05:06:14.118Z,73.89
2022-09-18T05:08:42.667Z,74.07
2022-09-18T05:11:11.221Z,74.10
2022-09-18T05:13:40.823Z,74.13
2022-09-18T05:16:14.348Z,74.22
2022-09-18T05:18:43.771Z,74.21
2022-09-18T05:21:12.123Z,74.37
2022-09-18T05:23:41.189Z,74.57
2022-09-18T05:26:22.499Z,74.53
2022-09-18T05:29:02.526Z,74.65
2022-09-18T05:31:30.884Z,74.85
2022-09-18T05:34:07.576Z,74.80
2022-09-18T05:36:35.866Z,74.75
2022-09-18T05:39:04.953Z,74.88
2022-09-18T05:41:37.969Z,75.02
2022-09-18T05:44:06.314Z,75.03
2022-09-18T05:46:35.387Z,75.03
2022-09-18T05:49:06.543Z,75.22
2022-09-18T05:51:36.529Z,75.11
2022-09-18T05:54:06.633Z,75.16
2022-09-18T05:56:44.732Z,75.24
2022-09-18T05:59:13.689Z,75.63
2022-09-18T06:01:46.988Z,75.97
2022-09-18T06:04:25.198Z,75.93
2022-09-18T06:06:57.226Z,76.18
2022-09-18T06:09:26.470Z,76.02
2022-09-18T06:11:54.808Z,75.28
2022-09-18T06:14:23.262Z,75.84
2022-09-18T06:16:53.914Z,76.05
2022-09-18T06:19:24.095Z,75.85
2022-09-18T06:21:53.456Z,75.45
2022-09-18T06:24:21.827Z,75.62
2022-09-18T06:27:06.301Z,75.54
2022-09-18T06:29:34.247Z,75.19
2022-09-18T06:32:34.954Z,75.15
2022-09-18T06:35:04.644Z,74.75
2022-09-18T06:37:32.965Z,75.21
2022-09-18T06:40:14.050Z,75.04
2022-09-18T06:42:58.051Z,74.79
2022-09-18T06:45:52.506Z,74.53
2022-09-18T06:48:26.666Z,74.35
2022-09-18T06:50:57.696Z,73.98
2022-09-18T06:53:27.918Z,74.03
2022-09-18T06:56:02.541Z,73.67
2022-09-18T06:58:33.708Z,73.73
2022-09-18T07:01:02.666Z,73.62
2022-09-18T07:03:39.316Z,73.47
2022-09-18T07:06:19.946Z,73.56
2022-09-18T07:08:49.870Z,73.66
2022-09-18T07:11:26.325Z,73.56
2022-09-18T07:13:55.833Z,73.65
2022-09-18T07:16:23.668Z,73.45
2022-09-18T07:18:53.658Z,73.64
2022-09-18T07:21:21.630Z,73.68
2022-09-18T07:23:49.753Z,73.62
2022-09-18T07:26:19.339Z,73.69
2022-09-18T07:28:48.448Z,73.61
2022-09-18T07:31:26.898Z,73.34
2022-09-18T07:33:56.461Z,73.57
2022-09-18T07:36:28.060Z,73.53
2022-09-18T07:38:56.715Z,73.66
2022-09-18T07:41:28.011Z,74.15
2022-09-18T07:43:56.408Z,74.38
2022-09-18T07:46:27.446Z,74.68
2022-09-18T07:49:00.036Z,74.71
2022-09-18T07:51:30.297Z,74.87
2022-09-18T07:53:59.456Z,75.10
2022-09-18T07:56:49.198Z,75.35
2022-09-18T07:59:20.080Z,75.66
2022-09-18T08:01:55.950Z,75.74
2022-09-18T08:04:26.172Z,75.92
2022-09-18T08:07:04.493Z,75.95
2022-09-18T08:09:52.257Z,75.99
2022-09-18T08:12:39.369Z,76.01
2022-09-18T08:15:26.043Z,76.07
2022-09-18T08:18:13.058Z,76.30
2022-09-18T08:21:12.120Z,76.31
2022-09-18T08:23:47.415Z,76.33
2022-09-18T08:26:21.430Z,76.46
2022-09-18T08:28:54.168Z,76.62
2022-09-18T08:31:24.819Z,76.74
2022-09-18T08:33:58.044Z,76.79
2022-09-18T08:36:28.951Z,76.71
2022-09-18T08:39:11.127Z,76.62
2022-09-18T08:42:39.581Z,76.58
2022-09-18T08:45:17.217Z,76.74
2022-09-18T08:47:56.171Z,76.81
2022-09-18T08:50:38.222Z,76.90
2022-09-18T08:53:34.431Z,76.96
2022-09-18T08:56:41.462Z,76.68
2022-09-18T08:59:36.644Z,76.53
2022-09-18T09:02:33.551Z,76.45
2022-09-18T09:05:13.514Z,76.25
2022-09-18T09:08:17.483Z,76.46
2022-09-18T09:11:34.613Z,76.20
2022-09-18T09:14:55.516Z,75.88
2022-09-18T09:17:47.823Z,76.01
2022-09-18T09:20:24.027Z,75.86
2022-09-18T09:23:08.318Z,75.96
2022-09-18T09:26:17.528Z,75.95
2022-09-18T09:29:13.622Z,75.87
2022-09-18T09:32:21.520Z,76.04
2022-09-18T09:35:38.313Z,76.24
2022-09-18T09:38:50.709Z,75.94
2022-09-18T09:41:29.343Z,75.90
2022-09-18T09:44:05.243Z,75.70
2022-09-18T09:46:46.631Z,75.58
2022-09-18T09:49:27.799Z,75.78
2022-09-18T09:52:18.423Z,75.50
2022-09-18T09:54:49.871Z,75.70
2022-09-18T09:57:41.325Z,75.61
2022-09-18T10:00:20.244Z,75.20
2022-09-18T10:03:20.410Z,75.25
2022-09-18T10:06:05.914Z,75.35
2022-09-18T10:08:46.883Z,75.08
2022-09-18T10:11:18.056Z,75.01
2022-09-18T10:14:06.894Z,74.64
2022-09-18T10:16:39.385Z,74.64
2022-09-18T10:19:14.616Z,74.18
2022-09-18T10:21:43.180Z,74.05
2022-09-18T10:24:34.945Z,74.17
2022-09-18T10:27:12.435Z,74.22
2022-09-18T10:29:43.106Z,74.08
2022-09-18T10:32:32.775Z,74.12
2022-09-18T10:35:01.469Z,74.11
2022-09-18T10:37:40.973Z,74.25
2022-09-18T10:40:31.918Z,74.03
2022-09-18T10:43:02.839Z,73.57
2022-09-18T10:45:38.789Z,73.59
2022-09-18T10:48:28.028Z,73.42
2022-09-18T10:50:59.211Z,73.23
2022-09-18T10:53:39.019Z,72.98
2022-09-18T10:56:18.049Z,73.00
2022-09-18T10:58:46.848Z,72.69
2022-09-18T11:01:16.607Z,72.02
2022-09-18T11:03:59.549Z,71.48
2022-09-18T11:06:32.532Z,71.67
2022-09-18T11:09:11.201Z,71.67
2022-09-18T11:11:46.079Z,71.75
2022-09-18T11:14:31.337Z,71.76
2022-09-18T11:17:05.247Z,71.34
2022-09-18T11:19:39.513Z,71.09
2022-09-18T11:22:50.202Z,70.62
2022-09-18T11:25:30.541Z,70.12
2022-09-18T11:28:29.141Z,70.13
2022-09-18T11:31:20.180Z,70.39
2022-09-18T11:33:56.894Z,70.56
2022-09-18T11:36:33.725Z,69.73
2022-09-18T11:39:15.571Z,69.47
2022-09-18T11:41:45.058Z,69.45
2022-09-18T11:44:19.573Z,69.47
2022-09-18T11:47:17.875Z,69.25
2022-09-18T11:49:50.303Z,68.30
2022-09-18T11:52:26.694Z,67.27
2022-09-18T11:55:19.220Z,67.63
2022-09-18T11:58:05.813Z,67.93
2022-09-18T12:00:44.492Z,67.67
2022-09-18T12:03:36.050Z,67.58
2022-09-18T12:06:15.552Z,67.86
2022-09-18T12:09:14.053Z,68.11
2022-09-18T12:11:51.601Z,67.16
2022-09-18T12:14:50.130Z,66.66
2022-09-18T12:17:47.674Z,66.72
2022-09-18T12:20:26.770Z,66.89
2022-09-18T12:22:57.354Z,66.57
2022-09-18T12:25:34.043Z,66.19
2022-09-18T12:29:02.880Z,66.10
2022-09-18T12:32:35.984Z,66.45
2022-09-18T12:35:34.365Z,66.38
2022-09-18T12:38:20.343Z,66.29
2022-09-18T12:41:01.066Z,66.45
2022-09-18T12:43:39.127Z,66.31
2022-09-18T12:46:21.576Z,66.26
2022-09-18T12:49:10.671Z,66.28
2022-09-18T12:51:44.837Z,66.56
2022-09-18T12:54:19.592Z,66.47
2022-09-18T12:57:24.208Z,66.03
2022-09-18T13:00:08.932Z,66.02
2022-09-18T13:02:55.359Z,65.82
2022-09-18T13:05:32.758Z,65.48
2022-09-18T13:08:26.148Z,65.64
2022-09-18T13:11:00.222Z,65.55
2022-09-18T13:13:43.566Z,65.35
2022-09-18T13:16:18.206Z,65.11
2022-09-18T13:19:15.848Z,65.03
2022-09-18T13:21:46.152Z,64.69
2022-09-18T13:24:19.757Z,64.57
2022-09-18T13:26:50.190Z,64.10
2022-09-18T13:30:07.347Z,63.58
2022-09-18T13:32:39.614Z,63.94
2022-09-18T13:35:21.597Z,63.84
2022-09-18T13:38:10.622Z,64.22
2022-09-18T13:40:44.246Z,64.10
2022-09-18T13:43:25.139Z,63.72
2022-09-18T13:45:54.228Z,63.35
2022-09-18T13:48:36.628Z,63.23
2022-09-18T13:51:07.262Z,63.24
2022-09-18T13:53:42.624Z,63.01
2022-09-18T13:56:14.217Z,62.44
2022-09-18T13:58:56.179Z,62.47
2022-09-18T14:01:43.070Z,62.39
2022-09-18T14:04:39.631Z,62.14
2022-09-18T14:07:33.044Z,62.09
2022-09-18T14:10:05.701Z,61.96
2022-09-18T14:12:35.673Z,61.93
2022-09-18T14:15:17.650Z,61.91
2022-09-18T14:18:04.758Z,61.92
2022-09-18T14:20:33.497Z,61.69
2022-09-18T14:23:36.341Z,61.53
2022-09-18T14:26:29.895Z,61.58
2022-09-18T14:29:16.648Z,61.34
2022-09-18T14:31:45.384Z,61.17
2022-09-18T14:34:32.503Z,60.96
2022-09-18T14:37:03.820Z,61.18
2022-09-18T14:39:36.969Z,61.14
2022-09-18T14:42:18.823Z,60.90
2022-09-18T14:44:53.705Z,60.88
2022-09-18T14:47:25.801Z,60.87
2022-09-18T14:49:54.014Z,60.94
2022-09-18T14:52:26.789Z,60.48
2022-09-18T14:54:57.488Z,60.50
2022-09-18T14:57:42.018Z,60.50
2022-09-18T15:00:19.312Z,60.56
2022-09-18T15:02:53.120Z,60.41
2022-09-18T15:05:22.603Z,60.14
2022-09-18T15:08:00.477Z,60.06
2022-09-18T15:10:29.125Z,60.07
2022-09-18T15:12:58.618Z,59.84
2022-09-18T15:15:39.635Z,59.71
2022-09-18T15:18:23.918Z,59.71
2022-09-18T15:20:55.889Z,59.75
2022-09-18T15:23:36.711Z,59.87
2022-09-18T15:26:13.581Z,59.89
2022-09-18T15:28:46.575Z,59.71
2022-09-18T15:31:18.731Z,59.71
2022-09-18T15:33:56.454Z,59.79
2022-09-18T15:36:32.231Z,59.88
2022-09-18T15:39:00.749Z,59.86
2022-09-18T15:41:36.897Z,59.90
2022-09-18T15:44:06.678Z,59.82
2022-09-18T15:46:37.112Z,59.54
2022-09-18T15:49:28.557Z,59.60
2022-09-18T15:51:56.751Z,59.71
2022-09-18T15:54:26.849Z,59.54
2022-09-18T15:56:57.830Z,59.68
2022-09-18T15:59:35.973Z,59.71
2022-09-18T16:02:37.744Z,59.54
2022-09-18T16:05:11.782Z,59.80
2022-09-18T16:07:57.594Z,59.71
2022-09-18T16:10:44.306Z,59.80
2022-09-18T16:13:34.214Z,59.94
2022-09-18T16:16:08.926Z,60.22
2022-09-18T16:18:56.733Z,60.10
2022-09-18T16:21:29.727Z,60.27
2022-09-18T16:24:01.567Z,60.54
2022-09-18T16:26:36.422Z,61.06
2022-09-18T16:29:13.711Z,61.46
2022-09-18T16:31:41.824Z,62.11
2022-09-18T16:34:27.907Z,62.52
2022-09-18T16:36:56.990Z,62.80
2022-09-18T16:39:27.804Z,63.05
2022-09-18T16:41:55.826Z,63.46
2022-09-18T16:44:25.208Z,63.95
2022-09-18T16:47:02.133Z,63.84
2022-09-18T16:49:37.438Z,63.82
2022-09-18T16:52:06.033Z,64.05
2022-09-18T16:54:33.955Z,64.26
2022-09-18T16:57:13.038Z,64.34
2022-09-18T16:59:43.522Z,64.64
2022-09-18T17:02:17.100Z,64.89
2022-09-18T17:04:44.961Z,65.00
2022-09-18T17:07:13.031Z,65.22
2022-09-18T17:09:41.888Z,65.43
2022-09-18T17:12:10.447Z,65.58
2022-09-18T17:14:38.753Z,65.78
2022-09-18T17:17:06.949Z,65.87
2022-09-18T17:19:35.996Z,66.06
2022-09-18T17:22:05.083Z,66.29
2022-09-18T17:24:33.952Z,66.43
2022-09-18T17:27:03.084Z,66.76
2022-09-18T17:29:31.352Z,67.11
2022-09-18T17:32:00.067Z,67.25
2022-09-18T17:34:29.586Z,67.33
2022-09-18T17:36:59.085Z,67.60
2022-09-18T17:39:28.105Z,67.86
2022-09-18T17:41:56.697Z,67.98
2022-09-18T17:44:25.188Z,67.88
2022-09-18T17:46:54.149Z,68.28
2022-09-18T17:49:22.272Z,68.29
2022-09-18T17:51:50.661Z,68.52
2022-09-18T17:54:19.295Z,68.63
2022-09-18T17:56:47.619Z,68.79
2022-09-18T17:59:16.249Z,68.82
2022-09-18T18:01:46.889Z,68.84
2022-09-18T18:04:15.659Z,68.77
2022-09-18T18:06:48.229Z,68.94
2022-09-18T18:09:17.338Z,68.96
2022-09-18T18:11:46.453Z,69.09
2022-09-18T18:14:16.253Z,69.29
2022-09-18T18:16:50.780Z,69.31
2022-09-18T18:19:21.279Z,69.39
2022-09-18T18:21:49.307Z,69.45
2022-09-18T18:24:19.049Z,69.63
2022-09-18T18:26:48.663Z,69.61
2022-09-18T18:29:19.598Z,69.73
2022-09-18T18:31:49.426Z,69.79
2022-09-18T18:34:21.429Z,69.75
2022-09-18T18:36:51.327Z,69.56
2022-09-18T18:39:22.167Z,69.50
2022-09-18T18:42:10.490Z,69.43
2022-09-18T18:44:42.781Z,69.44
2022-09-18T18:47:11.444Z,69.37
2022-09-18T18:49:40.454Z,69.40
2022-09-18T18:52:09.196Z,69.50
2022-09-18T18:54:38.018Z,69.56
2022-09-18T18:57:07.143Z,69.62
2022-09-18T18:59:35.713Z,69.46
2022-09-18T19:02:04.103Z,69.59
2022-09-18T19:04:35.264Z,69.71
2022-09-18T19:07:04.556Z,69.67
2022-09-18T19:09:34.081Z,69.71
2022-09-18T19:12:04.629Z,69.88
2022-09-18T19:14:34.622Z,69.95
2022-09-18T19:17:03.831Z,70.02
2022-09-18T19:19:32.102Z,70.18
2022-09-18T19:22:00.513Z,70.11
2022-09-18T19:24:30.870Z,70.16
2022-09-18T19:26:59.379Z,70.21
2022-09-18T19:29:28.118Z,70.26
2022-09-18T19:31:57.665Z,70.47
2022-09-18T19:34:27.647Z,70.41
2022-09-18T19:36:58.942Z,70.33
2022-09-18T19:39:29.147Z,70.28
2022-09-18T19:42:12.357Z,70.31
2022-09-18T19:44:45.561Z,70.62
2022-09-18T19:47:26.570Z,70.49
2022-09-18T19:49:57.127Z,70.54
2022-09-18T19:52:30.579Z,70.68
2022-09-18T19:54:59.096Z,70.63
2022-09-18T19:57:28.676Z,70.71
2022-09-18T19:59:57.450Z,70.75
2022-09-18T20:02:27.078Z,70.88
2022-09-18T20:04:56.954Z,70.78
2022-09-18T20:07:24.890Z,70.91
2022-09-18T20:09:52.719Z,70.98
2022-09-18T20:12:20.716Z,70.96
2022-09-18T20:14:48.938Z,70.99
2022-09-18T20:17:16.759Z,71.06
2022-09-18T20:19:45.558Z,71.19
2022-09-18T20:22:13.342Z,71.24
2022-09-18T20:24:41.732Z,71.38
2022-09-18T20:27:09.896Z,71.31
2022-09-18T20:29:38.084Z,71.52
2022-09-18T20:32:06.033Z,71.53
2022-09-18T20:34:34.521Z,71.52
2022-09-18T20:37:04.070Z,71.74
2022-09-18T20:39:32.644Z,71.72
2022-09-18T20:42:01.768Z,71.62
2022-09-18T20:44:30.376Z,71.61
2022-09-18T20:46:58.253Z,71.84
2022-09-18T20:49:26.761Z,71.90
2022-09-18T20:51:55.391Z,71.89
2022-09-18T20:54:24.657Z,71.94
2022-09-18T20:56:54.427Z,72.05
2022-09-18T20:59:25.018Z,72.00
2022-09-18T21:01:53.241Z,72.08
2022-09-18T21:04:21.685Z,72.06
2022-09-18T21:06:56.300Z,72.14
2022-09-18T21:09:26.553Z,72.28
2022-09-18T21:11:56.909Z,72.17
2022-09-18T21:14:25.639Z,72.29
2022-09-18T21:16:54.327Z,72.24
2022-09-18T21:19:24.486Z,72.45
2022-09-18T21:21:52.286Z,72.66
2022-09-18T21:24:21.282Z,72.56
2022-09-18T21:26:50.170Z,72.44
2022-09-18T21:29:29.975Z,72.58
2022-09-18T21:32:00.334Z,72.59
2022-09-18T21:34:31.111Z,72.71
2022-09-18T21:37:05.182Z,72.74
2022-09-18T21:39:34.142Z,72.68
2022-09-18T21:42:04.874Z,72.70
2022-09-18T21:44:37.257Z,72.72
2022-09-18T21:47:07.501Z,72.72
2022-09-18T21:49:35.754Z,72.81
2022-09-18T21:52:05.870Z,72.82
2022-09-18T21:54:34.219Z,73.03
2022-09-18T21:57:03.246Z,73.11
2022-09-18T21:59:32.264Z,73.09
2022-09-18T22:02:01.072Z,73.18
2022-09-18T22:04:33.025Z,73.17
2022-09-18T22:07:01.885Z,73.31
2022-09-18T22:09:33.527Z,73.37
2022-09-18T22:12:02.033Z,73.34
2022-09-18T22:14:33.066Z,73.39
2022-09-18T22:17:04.085Z,73.43
2022-09-18T22:19:33.478Z,73.57
2022-09-18T22:22:02.118Z,73.49
2022-09-18T22:24:30.415Z,73.57
2022-09-18T22:27:02.587Z,73.56
2022-09-18T22:29:32.648Z,73.61
2022-09-18T22:32:17.157Z,73.71
2022-09-18T22:34:45.729Z,73.69
2022-09-18T22:37:17.606Z,73.81
2022-09-18T22:39:47.160Z,73.75
2022-09-18T22:42:16.080Z,73.77
2022-09-18T22:44:44.604Z,73.80
2022-09-18T22:47:14.836Z,73.82
2022-09-18T22:49:43.300Z,73.90
2022-09-18T22:52:13.142Z,73.95
2022-09-18T22:54:40.974Z,74.02
2022-09-18T22:57:09.471Z,74.16
2022-09-18T22:59:37.645Z,74.15
2022-09-18T23:02:08.107Z,74.25
2022-09-18T23:05:38.205Z,74.18
2022-09-18T23:08:07.349Z,74.23
2022-09-18T23:10:35.501Z,74.27
2022-09-18T23:13:04.623Z,74.18
2022-09-18T23:15:54.704Z,74.40
2022-09-18T23:18:23.414Z,74.46
2022-09-18T23:20:52.039Z,74.67
2022-09-18T23:23:25.585Z,74.56
2022-09-18T23:26:41.686Z,74.60
2022-09-18T23:29:13.101Z,74.68
2022-09-18T23:31:44.498Z,74.64
2022-09-18T23:34:33.813Z,74.79
2022-09-18T23:37:05.024Z,74.81
2022-09-18T23:39:47.181Z,74.91
2022-09-18T23:42:16.162Z,74.86
2022-09-18T23:44:45.851Z,74.93
2022-09-18T23:47:14.019Z,75.03
2022-09-18T23:50:42.609Z,74.94
2022-09-18T23:54:44.640Z,75.04
2022-09-18T23:57:14.865Z,75.08
2022-09-18T23:59:45.621Z,75.12
